createdAt,value
2018-06-10T00:01:03.457Z,9.70
2018-06-10T00:03:32.260Z,8.95
2018-06-10T00:06:00.845Z,9.40
2018-06-10T00:08:29.561Z,9.98
2018-06-10T00:10:58.419Z,9.03
2018-06-10T00:13:27.190Z,8.90
2018-06-10T00:15:55.560Z,8.65
2018-06-10T00:18:24.210Z,9.73
2018-06-10T00:20:52.977Z,9.10
2018-06-10T00:23:21.716Z,9.90
2018-06-10T00:25:50.198Z,9.70
2018-06-10T00:28:24.014Z,10.10
2018-06-10T00:30:52.468Z,10.25
2018-06-10T00:33:21.187Z,10.77
2018-06-10T00:35:49.482Z,10.10
2018-06-10T00:38:17.859Z,10.35
2018-06-10T00:40:46.623Z,9.55
2018-06-10T00:43:15.322Z,10.05
2018-06-10T00:45:43.694Z,10.60
2018-06-10T00:48:12.478Z,10.40
2018-06-10T00:50:40.987Z,10.25
2018-06-10T00:53:09.718Z,10.35
2018-06-10T00:55:38.399Z,9.88
2018-06-10T00:58:07.213Z,10.80
2018-06-10T01:00:35.949Z,10.43
2018-06-10T01:03:04.277Z,10.25
2018-06-10T01:05:32.934Z,10.63
2018-06-10T01:08:01.624Z,10.70
2018-06-10T01:10:30.346Z,10.90
2018-06-10T01:12:59.157Z,10.60
2018-06-10T01:15:27.825Z,9.17
2018-06-10T01:17:56.559Z,8.20
2018-06-10T01:20:24.907Z,8.83
2018-06-10T01:22:53.688Z,9.40
2018-06-10T01:25:22.384Z,10.03
2018-06-10T01:27:50.967Z,10.65
2018-06-10T01:30:19.681Z,10.73
2018-06-10T01:32:48.499Z,9.43
2018-06-10T01:35:17.424Z,9.48
2018-06-10T01:37:46.222Z,9.23
2018-06-10T01:40:14.839Z,8.43
2018-06-10T01:42:43.207Z,8.40
2018-06-10T01:45:12.014Z,8.08
2018-06-10T01:47:40.452Z,9.55
2018-06-10T01:50:09.203Z,9.20
2018-06-10T01:52:37.700Z,10.03
2018-06-10T01:55:06.402Z,9.73
2018-06-10T01:57:34.997Z,10.10
2018-06-10T02:00:03.907Z,10.20
2018-06-10T02:02:32.731Z,10.32
2018-06-10T02:05:01.695Z,11.22
2018-06-10T02:07:30.521Z,10.93
2018-06-10T02:09:59.197Z,10.55
2018-06-10T02:12:27.593Z,10.40
2018-06-10T02:14:56.356Z,10.55
2018-06-10T02:17:25.056Z,10.38
2018-06-10T02:19:53.493Z,10.30
2018-06-10T02:22:22.249Z,10.43
2018-06-10T02:24:51.090Z,10.68
2018-06-10T02:27:19.853Z,10.98
2018-06-10T02:29:48.529Z,10.82
2018-06-10T02:32:17.566Z,11.05
2018-06-10T02:34:46.296Z,11.57
2018-06-10T02:37:15.130Z,11.15
2018-06-10T02:39:43.891Z,11.50
2018-06-10T02:42:12.544Z,11.30
2018-06-10T02:44:41.352Z,12.13
2018-06-10T02:47:10.152Z,12.17
2018-06-10T02:49:38.895Z,12.15
2018-06-10T02:52:07.346Z,12.00
2018-06-10T02:54:35.946Z,11.20
2018-06-10T02:57:04.833Z,12.37
2018-06-10T02:59:33.662Z,11.75
2018-06-10T03:02:02.947Z,11.45
2018-06-10T03:04:31.536Z,11.50
2018-06-10T03:07:00.563Z,11.57
2018-06-10T03:09:29.290Z,10.98
2018-06-10T03:11:58.136Z,10.88
2018-06-10T03:14:26.569Z,9.55
2018-06-10T03:16:55.401Z,10.73
2018-06-10T03:19:24.217Z,10.15
2018-06-10T03:21:52.920Z,9.98
2018-06-10T03:24:21.786Z,10.40
2018-06-10T03:26:50.500Z,9.90
2018-06-10T03:29:19.176Z,9.15
2018-06-10T03:31:47.897Z,9.37
2018-06-10T03:34:16.546Z,9.40
2018-06-10T03:36:45.631Z,9.80
2018-06-10T03:39:14.275Z,9.20
2018-06-10T03:41:42.818Z,9.50
2018-06-10T03:44:11.463Z,9.90
2018-06-10T03:46:39.842Z,11.43
2018-06-10T03:49:08.639Z,11.10
2018-06-10T03:51:37.044Z,10.50
2018-06-10T03:54:05.985Z,10.98
2018-06-10T03:56:34.716Z,11.37
2018-06-10T03:59:03.511Z,10.98
2018-06-10T04:01:31.944Z,11.50
2018-06-10T04:04:00.648Z,11.38
2018-06-10T04:06:29.378Z,11.70
2018-06-10T04:08:58.093Z,11.60
2018-06-10T04:11:26.832Z,11.85
2018-06-10T04:13:55.668Z,11.80
2018-06-10T04:16:24.503Z,11.48
2018-06-10T04:18:53.246Z,11.88
2018-06-10T04:21:22.007Z,11.33
2018-06-10T04:23:50.828Z,11.28
2018-06-10T04:26:19.679Z,11.83
2018-06-10T04:28:48.081Z,11.35
2018-06-10T04:31:16.692Z,11.33
2018-06-10T04:33:45.348Z,12.43
2018-06-10T04:36:14.144Z,12.50
2018-06-10T04:38:42.785Z,12.13
2018-06-10T04:41:11.069Z,12.20
2018-06-10T04:43:39.787Z,11.87
2018-06-10T04:46:08.481Z,12.58
2018-06-10T04:48:37.240Z,11.43
2018-06-10T04:51:06.006Z,11.35
2018-06-10T04:53:35.341Z,10.60
2018-06-10T04:56:04.099Z,9.83
2018-06-10T04:58:32.823Z,10.53
2018-06-10T05:01:01.507Z,9.48
2018-06-10T05:03:30.318Z,10.13
2018-06-10T05:05:59.106Z,9.93
2018-06-10T05:08:27.782Z,10.23
2018-06-10T05:10:56.384Z,10.03
2018-06-10T05:13:25.026Z,10.20
2018-06-10T05:15:54.707Z,10.15
2018-06-10T05:18:23.340Z,8.90
2018-06-10T05:20:52.096Z,10.88
2018-06-10T05:23:20.848Z,10.18
2018-06-10T05:25:49.554Z,11.77
2018-06-10T05:28:18.257Z,11.35
2018-06-10T05:30:46.792Z,13.50
2018-06-10T05:33:15.504Z,13.95
2018-06-10T05:35:44.346Z,15.65
2018-06-10T05:38:13.067Z,17.20
2018-06-10T05:40:42.069Z,18.27
2018-06-10T05:43:10.820Z,18.12
2018-06-10T05:45:39.512Z,22.60
2018-06-10T05:48:08.176Z,27.82
2018-06-10T05:50:36.966Z,27.67
2018-06-10T05:53:05.724Z,29.35
2018-06-10T05:55:34.383Z,25.27
2018-06-10T05:58:03.216Z,23.00
2018-06-10T06:00:31.615Z,22.77
2018-06-10T06:03:00.386Z,22.22
2018-06-10T06:05:29.063Z,21.17
2018-06-10T06:07:57.690Z,20.75
2018-06-10T06:10:26.451Z,20.60
2018-06-10T06:12:55.125Z,20.57
2018-06-10T06:15:23.835Z,21.50
2018-06-10T06:17:52.456Z,21.62
2018-06-10T06:20:21.744Z,26.27
2018-06-10T06:22:50.492Z,26.90
2018-06-10T06:25:19.320Z,22.80
2018-06-10T06:27:48.093Z,23.80
2018-06-10T06:30:16.669Z,23.40
2018-06-10T06:32:45.528Z,24.00
2018-06-10T06:35:14.221Z,25.35
2018-06-10T06:37:42.955Z,26.25
2018-06-10T06:40:11.766Z,25.88
2018-06-10T06:42:40.663Z,24.35
2018-06-10T06:45:09.489Z,24.45
2018-06-10T06:47:38.206Z,25.43
2018-06-10T06:50:06.897Z,25.90
2018-06-10T06:52:35.626Z,25.92
2018-06-10T06:55:04.528Z,24.95
2018-06-10T06:57:33.246Z,22.83
2018-06-10T07:00:01.965Z,24.10
2018-06-10T07:02:30.739Z,24.37
2018-06-10T07:04:59.090Z,25.90
2018-06-10T07:07:27.769Z,25.02
2018-06-10T07:09:56.581Z,24.37
2018-06-10T07:12:25.266Z,23.00
2018-06-10T07:14:54.013Z,21.65
2018-06-10T07:17:22.842Z,21.12
2018-06-10T07:19:51.809Z,20.30
2018-06-10T07:22:20.612Z,19.47
2018-06-10T07:24:49.352Z,19.10
2018-06-10T07:27:18.136Z,20.77
2018-06-10T07:29:46.502Z,20.27
2018-06-10T07:32:15.405Z,20.50
2018-06-10T07:34:44.312Z,20.45
2018-06-10T07:37:13.163Z,21.27
2018-06-10T07:39:46.794Z,20.90
2018-06-10T07:42:15.852Z,21.55
2018-06-10T07:44:44.680Z,22.05
2018-06-10T07:47:13.546Z,22.10
2018-06-10T07:49:42.241Z,23.83
2018-06-10T07:52:10.940Z,23.02
2018-06-10T07:54:39.884Z,23.30
2018-06-10T07:57:08.843Z,24.00
2018-06-10T07:59:37.597Z,24.35
2018-06-10T08:02:06.785Z,24.18
2018-06-10T08:04:35.638Z,24.75
2018-06-10T08:07:04.532Z,24.35
2018-06-10T08:09:33.357Z,23.73
2018-06-10T08:12:02.954Z,23.42
2018-06-10T08:14:32.024Z,24.20
2018-06-10T08:17:00.651Z,24.23
2018-06-10T08:19:29.571Z,24.72
2018-06-10T08:21:58.315Z,25.48
2018-06-10T08:24:27.411Z,23.93
2018-06-10T08:26:56.642Z,23.95
2018-06-10T08:29:25.615Z,25.60
2018-06-10T08:31:54.571Z,23.90
2018-06-10T08:34:23.562Z,24.47
2018-06-10T08:36:52.562Z,24.67
2018-06-10T08:39:21.408Z,23.75
2018-06-10T08:41:50.149Z,24.00
2018-06-10T08:44:18.824Z,25.40
2018-06-10T08:46:47.615Z,24.53
2018-06-10T08:49:16.520Z,25.00
2018-06-10T08:51:45.364Z,24.73
2018-06-10T08:54:14.474Z,25.43
2018-06-10T08:56:43.402Z,25.37
2018-06-10T08:59:12.568Z,24.32
2018-06-10T09:01:41.522Z,22.87
2018-06-10T09:04:10.459Z,22.58
2018-06-10T09:06:39.323Z,23.73
2018-06-10T09:09:09.484Z,24.10
2018-06-10T09:11:38.641Z,23.70
2018-06-10T09:14:08.372Z,23.40
2018-06-10T09:16:37.433Z,23.57
2018-06-10T09:19:06.277Z,24.20
2018-06-10T09:21:34.999Z,22.05
2018-06-10T09:24:03.752Z,21.82
2018-06-10T09:26:32.658Z,21.15
2018-06-10T09:29:01.499Z,18.95
2018-06-10T09:31:30.740Z,18.40
2018-06-10T09:34:00.019Z,19.27
2018-06-10T09:36:29.090Z,18.53
2018-06-10T09:38:57.950Z,15.53
2018-06-10T09:41:26.790Z,14.50
2018-06-10T09:43:55.804Z,15.53
2018-06-10T09:46:24.663Z,15.10
2018-06-10T09:48:53.711Z,14.30
2018-06-10T09:51:22.513Z,15.63
2018-06-10T09:53:51.305Z,21.90
2018-06-10T09:56:19.997Z,16.40
2018-06-10T09:58:48.762Z,14.57
2018-06-10T10:01:17.488Z,15.30
2018-06-10T10:03:46.261Z,14.73
2018-06-10T10:06:15.144Z,14.20
2018-06-10T10:08:43.823Z,13.98
2018-06-10T10:11:12.609Z,14.73
2018-06-10T10:13:41.361Z,15.05
2018-06-10T10:16:10.314Z,14.20
2018-06-10T10:18:39.507Z,12.75
2018-06-10T10:21:08.368Z,13.25
2018-06-10T10:23:37.279Z,11.90
2018-06-10T10:26:05.742Z,11.00
2018-06-10T10:28:34.566Z,8.78
2018-06-10T10:31:03.378Z,8.00
2018-06-10T10:33:32.434Z,8.40
2018-06-10T10:36:00.768Z,8.00
2018-06-10T10:38:29.677Z,8.40
2018-06-10T10:40:58.477Z,8.65
2018-06-10T10:43:27.375Z,7.37
2018-06-10T10:45:56.851Z,7.37
2018-06-10T10:48:25.325Z,7.07
2018-06-10T10:50:54.025Z,8.00
2018-06-10T10:53:22.873Z,7.78
2018-06-10T10:55:51.850Z,7.72
2018-06-10T10:58:20.738Z,7.85
2018-06-10T11:00:49.925Z,7.60
2018-06-10T11:03:18.888Z,7.42
2018-06-10T11:05:47.853Z,6.90
2018-06-10T11:08:17.062Z,7.40
2018-06-10T11:10:45.851Z,7.70
2018-06-10T11:13:14.731Z,7.67
2018-06-10T11:15:43.602Z,7.00
2018-06-10T11:18:12.343Z,6.87
2018-06-10T11:20:41.116Z,7.10
2018-06-10T11:23:09.945Z,7.08
2018-06-10T11:25:38.958Z,7.65
2018-06-10T11:28:07.937Z,9.40
2018-06-10T11:30:36.673Z,6.95
2018-06-10T11:33:05.633Z,7.17
2018-06-10T11:35:34.419Z,11.43
2018-06-10T11:38:05.364Z,10.25
2018-06-10T11:40:34.063Z,6.75
2018-06-10T11:43:02.751Z,7.20
2018-06-10T11:45:31.403Z,6.58
2018-06-10T11:48:00.154Z,6.45
2018-06-10T11:50:29.999Z,6.70
2018-06-10T11:52:58.764Z,6.90
2018-06-10T11:55:27.547Z,7.45
2018-06-10T11:57:56.354Z,9.38
2018-06-10T12:00:25.328Z,7.40
2018-06-10T12:02:54.434Z,6.67
2018-06-10T12:05:23.575Z,7.15
2018-06-10T12:07:52.638Z,6.00
2018-06-10T12:10:25.249Z,7.00
2018-06-10T12:12:54.094Z,6.20
2018-06-10T12:15:22.974Z,6.47
2018-06-10T12:17:51.952Z,5.92
2018-06-10T12:20:21.257Z,5.30
2018-06-10T12:22:50.210Z,5.87
2018-06-10T12:25:19.162Z,5.50
2018-06-10T12:27:47.866Z,5.40
2018-06-10T12:30:16.613Z,5.60
2018-06-10T12:32:45.527Z,5.40
2018-06-10T12:35:13.992Z,5.70
2018-06-10T12:37:42.984Z,5.58
2018-06-10T12:40:11.798Z,5.22
2018-06-10T12:42:40.586Z,5.78
2018-06-10T12:45:09.513Z,5.40
2018-06-10T12:47:38.326Z,6.00
2018-06-10T12:50:07.305Z,5.45
2018-06-10T12:52:36.146Z,5.37
2018-06-10T12:55:05.945Z,5.63
2018-06-10T12:57:34.855Z,5.40
2018-06-10T13:00:03.767Z,5.85
2018-06-10T13:02:32.872Z,5.55
2018-06-10T13:05:01.527Z,5.25
2018-06-10T13:07:30.521Z,4.97
2018-06-10T13:09:59.429Z,5.20
2018-06-10T13:12:28.353Z,5.40
2018-06-10T13:14:57.585Z,5.65
2018-06-10T13:17:26.605Z,6.30
2018-06-10T13:19:55.531Z,5.60
2018-06-10T13:22:24.267Z,6.15
2018-06-10T13:24:52.979Z,6.00
2018-06-10T13:27:21.679Z,5.72
2018-06-10T13:29:50.459Z,5.72
2018-06-10T13:32:19.261Z,5.30
2018-06-10T13:34:47.721Z,7.10
2018-06-10T13:37:16.507Z,5.40
2018-06-10T13:39:50.492Z,5.58
2018-06-10T13:42:19.609Z,5.33
2018-06-10T13:44:48.362Z,5.62
2018-06-10T13:47:17.201Z,5.40
2018-06-10T13:49:45.858Z,7.67
2018-06-10T13:52:14.769Z,10.03
2018-06-10T13:54:43.342Z,8.90
2018-06-10T13:57:12.030Z,7.62
2018-06-10T13:59:40.782Z,5.00
2018-06-10T14:02:09.644Z,5.37
2018-06-10T14:04:38.523Z,5.85
2018-06-10T14:07:07.350Z,4.80
2018-06-10T14:09:36.025Z,5.70
2018-06-10T14:12:04.795Z,5.40
2018-06-10T14:14:33.538Z,5.03
2018-06-10T14:17:02.426Z,5.40
2018-06-10T14:19:31.123Z,5.10
2018-06-10T14:22:00.220Z,4.97
2018-06-10T14:24:30.089Z,5.10
2018-06-10T14:26:58.870Z,5.10
2018-06-10T14:29:27.621Z,5.15
2018-06-10T14:31:56.442Z,5.00
2018-06-10T14:34:25.168Z,4.63
2018-06-10T14:36:54.025Z,4.93
2018-06-10T14:39:22.844Z,4.72
2018-06-10T14:41:51.466Z,5.00
2018-06-10T14:44:20.386Z,4.87
2018-06-10T14:46:49.122Z,4.75
2018-06-10T14:49:17.788Z,4.70
2018-06-10T14:51:46.182Z,5.50
2018-06-10T14:54:14.943Z,4.47
2018-06-10T14:56:43.830Z,5.00
2018-06-10T14:59:12.654Z,5.40
2018-06-10T15:01:41.549Z,4.72
2018-06-10T15:04:10.238Z,5.70
2018-06-10T15:06:38.936Z,5.30
2018-06-10T15:09:08.980Z,4.87
2018-06-10T15:11:37.780Z,4.80
2018-06-10T15:14:06.535Z,4.62
2018-06-10T15:16:35.211Z,4.72
2018-06-10T15:19:03.576Z,4.92
2018-06-10T15:21:32.387Z,4.80
2018-06-10T15:24:01.103Z,4.97
2018-06-10T15:26:29.797Z,5.28
2018-06-10T15:28:58.546Z,5.00
2018-06-10T15:31:27.124Z,4.45
2018-06-10T15:33:55.732Z,4.70
2018-06-10T15:36:24.552Z,4.80
2018-06-10T15:38:53.318Z,4.87
2018-06-10T15:41:22.134Z,4.90
2018-06-10T15:43:50.879Z,5.40
2018-06-10T15:46:19.665Z,5.50
2018-06-10T15:48:48.573Z,5.53
2018-06-10T15:51:17.321Z,5.37
2018-06-10T15:53:46.407Z,5.97
2018-06-10T15:56:14.808Z,6.03
2018-06-10T15:58:43.361Z,5.70
2018-06-10T16:01:12.040Z,5.80
2018-06-10T16:03:40.631Z,5.85
2018-06-10T16:06:09.293Z,6.33
2018-06-10T16:08:38.004Z,7.35
2018-06-10T16:11:06.990Z,5.35
2018-06-10T16:13:35.361Z,5.70
2018-06-10T16:16:04.193Z,6.80
2018-06-10T16:18:33.004Z,6.15
2018-06-10T16:21:01.775Z,5.70
2018-06-10T16:23:30.532Z,6.70
2018-06-10T16:25:59.291Z,6.58
2018-06-10T16:28:27.982Z,5.67
2018-06-10T16:30:56.780Z,6.28
2018-06-10T16:33:25.468Z,6.47
2018-06-10T16:35:54.099Z,6.03
2018-06-10T16:38:22.872Z,8.08
2018-06-10T16:40:52.206Z,6.40
2018-06-10T16:43:20.916Z,7.12
2018-06-10T16:45:49.303Z,7.33
2018-06-10T16:48:17.973Z,6.50
2018-06-10T16:50:46.611Z,6.12
2018-06-10T16:53:15.107Z,6.50
2018-06-10T16:55:43.499Z,8.30
2018-06-10T16:58:12.289Z,6.33
2018-06-10T17:00:40.759Z,6.20
2018-06-10T17:03:09.482Z,6.60
2018-06-10T17:05:38.226Z,6.45
2018-06-10T17:08:07.099Z,6.45
2018-06-10T17:10:35.932Z,6.07
2018-06-10T17:13:04.765Z,7.35
2018-06-10T17:15:33.651Z,7.17
2018-06-10T17:18:02.301Z,6.50
2018-06-10T17:20:31.123Z,6.37
2018-06-10T17:22:59.988Z,7.00
2018-06-10T17:25:28.774Z,6.53
2018-06-10T17:27:59.798Z,7.20
2018-06-10T17:30:28.715Z,7.17
2018-06-10T17:32:57.618Z,7.17
2018-06-10T17:35:26.372Z,7.17
2018-06-10T17:37:55.280Z,10.60
2018-06-10T17:40:24.035Z,7.45
2018-06-10T17:42:52.941Z,7.22
2018-06-10T17:45:21.964Z,8.13
2018-06-10T17:47:50.703Z,7.40
2018-06-10T17:50:20.547Z,7.40
2018-06-10T17:52:50.228Z,9.03
2018-06-10T17:55:19.193Z,7.65
2018-06-10T17:57:47.633Z,8.68
2018-06-10T18:00:16.569Z,8.10
2018-06-10T18:02:45.208Z,7.35
2018-06-10T18:05:13.942Z,7.45
2018-06-10T18:07:42.801Z,7.60
2018-06-10T18:10:11.546Z,8.18
2018-06-10T18:12:41.944Z,8.43
2018-06-10T18:15:10.662Z,8.13
2018-06-10T18:17:39.464Z,7.77
2018-06-10T18:20:08.238Z,7.90
2018-06-10T18:22:37.095Z,7.92
2018-06-10T18:25:06.280Z,8.05
2018-06-10T18:27:35.153Z,8.20
2018-06-10T18:30:03.954Z,8.00
2018-06-10T18:32:32.370Z,8.20
2018-06-10T18:35:01.121Z,9.03
2018-06-10T18:37:29.813Z,8.83
2018-06-10T18:39:58.576Z,9.23
2018-06-10T18:42:27.378Z,8.90
2018-06-10T18:44:56.623Z,8.50
2018-06-10T18:47:25.374Z,8.80
2018-06-10T18:49:54.112Z,9.28
2018-06-10T18:52:22.881Z,8.97
2018-06-10T18:54:51.243Z,9.43
2018-06-10T18:57:19.891Z,9.33
2018-06-10T18:59:48.751Z,9.18
2018-06-10T19:02:17.422Z,9.67
2018-06-10T19:04:45.820Z,8.85
2018-06-10T19:07:14.556Z,10.72
2018-06-10T19:09:43.269Z,9.67
2018-06-10T19:12:11.654Z,10.32
2018-06-10T19:14:40.322Z,9.65
2018-06-10T19:17:09.108Z,9.75
2018-06-10T19:19:37.856Z,9.83
2018-06-10T19:22:06.773Z,10.30
2018-06-10T19:24:35.832Z,9.90
2018-06-10T19:27:04.682Z,11.30
2018-06-10T19:29:34.414Z,9.97
2018-06-10T19:32:02.844Z,10.53
2018-06-10T19:34:31.765Z,10.38
2018-06-10T19:37:00.645Z,10.90
2018-06-10T19:39:29.408Z,10.70
2018-06-10T19:41:58.367Z,9.78
2018-06-10T19:44:27.206Z,10.48
2018-06-10T19:46:56.143Z,10.00
2018-06-10T19:49:24.911Z,10.57
2018-06-10T19:51:53.678Z,9.85
2018-06-10T19:54:22.357Z,10.28
2018-06-10T19:56:51.058Z,10.73
2018-06-10T19:59:19.795Z,11.03
2018-06-10T20:01:48.445Z,10.70
2018-06-10T20:04:17.236Z,11.18
2018-06-10T20:06:46.194Z,10.45
2018-06-10T20:09:14.882Z,11.33
2018-06-10T20:11:43.607Z,11.05
2018-06-10T20:14:12.263Z,10.77
2018-06-10T20:16:40.963Z,11.22
2018-06-10T20:19:09.724Z,10.90
2018-06-10T20:21:38.566Z,10.23
2018-06-10T20:24:07.304Z,11.07
2018-06-10T20:26:35.931Z,10.95
2018-06-10T20:29:04.596Z,10.53
2018-06-10T20:31:33.266Z,11.00
2018-06-10T20:34:01.944Z,10.68
2018-06-10T20:36:30.987Z,11.10
2018-06-10T20:38:59.793Z,11.35
2018-06-10T20:41:28.557Z,11.00
2018-06-10T20:43:57.309Z,11.20
2018-06-10T20:46:26.119Z,11.48
2018-06-10T20:48:54.847Z,11.33
2018-06-10T20:51:23.300Z,11.05
2018-06-10T20:53:51.581Z,11.10
2018-06-10T20:56:20.591Z,11.75
2018-06-10T20:58:49.394Z,10.20
2018-06-10T21:01:17.940Z,9.80
2018-06-10T21:03:46.215Z,9.48
2018-06-10T21:06:14.880Z,10.58
2018-06-10T21:08:43.198Z,10.20
2018-06-10T21:11:11.471Z,9.80
2018-06-10T21:13:40.294Z,10.28
2018-06-10T21:16:08.797Z,10.60
2018-06-10T21:18:37.501Z,10.72
2018-06-10T21:21:05.986Z,10.50
2018-06-10T21:23:34.730Z,10.90
2018-06-10T21:26:03.468Z,11.30
2018-06-10T21:28:32.158Z,10.93
2018-06-10T21:31:00.873Z,13.20
2018-06-10T21:33:29.738Z,13.93
2018-06-10T21:35:58.421Z,12.87
2018-06-10T21:38:27.225Z,12.53
2018-06-10T21:40:55.947Z,11.93
2018-06-10T21:43:24.778Z,11.60
2018-06-10T21:45:53.168Z,11.57
2018-06-10T21:48:22.089Z,11.28
2018-06-10T21:50:50.922Z,10.90
2018-06-10T21:53:19.672Z,11.25
2018-06-10T21:55:48.530Z,11.83
2018-06-10T21:58:17.541Z,11.50
2018-06-10T22:00:46.647Z,11.60
2018-06-10T22:03:15.266Z,11.43
2018-06-10T22:05:43.990Z,11.45
2018-06-10T22:08:17.772Z,12.20
2018-06-10T22:10:46.706Z,12.07
2018-06-10T22:13:15.019Z,12.43
2018-06-10T22:15:43.784Z,11.85
2018-06-10T22:18:12.603Z,12.13
2018-06-10T22:20:41.254Z,12.10
2018-06-10T22:23:10.897Z,11.57
2018-06-10T22:25:39.530Z,11.43
2018-06-10T22:28:08.232Z,12.28
2018-06-10T22:30:36.941Z,11.97
2018-06-10T22:33:05.495Z,12.07
2018-06-10T22:35:34.177Z,11.48
2018-06-10T22:38:02.498Z,12.57
2018-06-10T22:40:31.422Z,13.83
2018-06-10T22:43:00.303Z,15.65
2018-06-10T22:45:29.194Z,14.25
2018-06-10T22:47:57.947Z,13.53
2018-06-10T22:50:26.558Z,13.90
2018-06-10T22:55:08.603Z,14.78
2018-06-10T22:57:37.353Z,13.53
2018-06-10T23:00:07.138Z,12.73
2018-06-10T23:02:40.169Z,12.00
2018-06-10T23:05:08.801Z,12.35
2018-06-10T23:07:37.598Z,12.25
2018-06-10T23:10:06.637Z,12.47
2018-06-10T23:12:35.325Z,12.30
2018-06-10T23:15:04.150Z,12.63
2018-06-10T23:17:32.825Z,12.80
2018-06-10T23:20:01.588Z,12.80
2018-06-10T23:22:30.341Z,13.33
2018-06-10T23:24:59.154Z,12.73
2018-06-10T23:27:27.989Z,12.93
2018-06-10T23:29:56.551Z,12.80
2018-06-10T23:32:25.454Z,12.73
2018-06-10T23:34:54.154Z,13.05
2018-06-10T23:37:22.961Z,13.08
2018-06-10T23:39:51.722Z,12.40
2018-06-10T23:42:20.427Z,13.00
2018-06-10T23:44:49.118Z,12.63
2018-06-10T23:47:17.489Z,12.63
2018-06-10T23:49:46.194Z,12.25
2018-06-10T23:52:14.946Z,12.10
2018-06-10T23:54:43.654Z,11.97
2018-06-10T23:57:12.415Z,11.97
2018-06-10T23:59:41.224Z,11.85
